Time;durP1;ratioP1;P1;durP2;ratioP2;P2;SDS_P1;SDS_P2;PMS_P1;PMS_P2;Temp;Humidity;BMP_temperature;BMP_pressure;BME280_temperature;BME280_humidity;BME280_pressure;Samples;Min_cycle;Max_cycle;Signal;HPM_P1;HPM_P2
2021/09/28 00:00:10;;;;;;;8.57;1.92;;;13.60;92.80;;;;;;5090520;27;20035;-72
2021/09/28 00:02:36;;;;;;;8.57;2.05;;;13.60;92.80;;;;;;5108681;27;20424;-66
2021/09/28 00:05:02;;;;;;;10.30;1.50;;;13.60;92.80;;;;;;5098438;27;20039;-66
2021/09/28 00:07:27;;;;;;;7.07;2.75;;;13.60;92.80;;;;;;5108511;27;20032;-67
2021/09/28 00:09:53;;;;;;;7.40;3.50;;;13.70;93.20;;;;;;5101239;27;20042;-67
2021/09/28 00:12:19;;;;;;;5.30;1.42;;;13.80;93.80;;;;;;5092926;27;20395;-67
2021/09/28 00:14:46;;;;;;;9.90;2.28;;;13.80;93.50;;;;;;5095309;27;20038;-67
2021/09/28 00:17:12;;;;;;;13.38;4.68;;;13.70;92.80;;;;;;5111015;27;20377;-66
2021/09/28 00:19:40;;;;;;;8.60;1.92;;;13.60;93.60;;;;;;5105986;27;20088;-67
2021/09/28 00:22:06;;;;;;;8.45;1.25;;;13.60;94.10;;;;;;5098887;27;20039;-66
2021/09/28 00:24:33;;;;;;;6.40;2.20;;;13.70;93.30;;;;;;5098597;27;20061;-67
2021/09/28 00:27:00;;;;;;;4.25;1.45;;;13.60;93.00;;;;;;5110359;27;20052;-68
2021/09/28 00:29:25;;;;;;;8.65;1.40;;;13.50;92.80;;;;;;5108465;27;20044;-68
2021/09/28 00:31:51;;;;;;;5.47;1.63;;;13.30;92.80;;;;;;5081117;27;20042;-68
2021/09/28 00:34:18;;;;;;;7.30;1.30;;;13.20;92.90;;;;;;5092822;27;20106;-68
2021/09/28 00:36:44;;;;;;;8.98;1.90;;;13.10;93.10;;;;;;5110529;27;20101;-68
2021/09/28 00:39:10;;;;;;;9.15;1.90;;;13.00;93.20;;;;;;5103408;27;20035;-68
2021/09/28 00:41:35;;;;;;;8.57;1.85;;;12.90;93.50;;;;;;5105411;27;20413;-68
2021/09/28 00:44:01;;;;;;;4.40;1.33;;;12.80;93.80;;;;;;5104835;27;20079;-68
2021/09/28 00:46:27;;;;;;;4.10;1.55;;;12.80;93.90;;;;;;5077410;27;20056;-68
2021/09/28 00:48:53;;;;;;;7.43;4.43;;;12.80;93.80;;;;;;5097457;27;20032;-68
2021/09/28 00:51:19;;;;;;;4.50;2.28;;;12.80;94.20;;;;;;5081402;27;20044;-68
2021/09/28 00:53:49;;;;;;;7.65;2.25;;;13.00;95.00;;;;;;5108332;27;20126;-68
2021/09/28 00:56:17;;;;;;;9.35;2.47;;;13.20;94.90;;;;;;5106687;27;22276;-68
2021/09/28 00:58:44;;;;;;;8.30;2.75;;;13.30;94.60;;;;;;5104655;27;20453;-67
2021/09/28 01:01:12;;;;;;;5.93;1.70;;;13.30;94.30;;;;;;5123070;27;20399;-69
2021/09/28 01:03:38;;;;;;;5.28;1.42;;;13.20;93.80;;;;;;5098551;27;20048;-67
2021/09/28 01:06:05;;;;;;;5.07;1.50;;;13.00;93.60;;;;;;5109759;27;20065;-67
2021/09/28 01:08:30;;;;;;;11.80;4.03;;;12.90;93.60;;;;;;5096938;27;20052;-67
2021/09/28 01:10:56;;;;;;;5.68;1.52;;;12.80;94.30;;;;;;5106745;27;20039;-67
2021/09/28 01:13:24;;;;;;;7.60;2.58;;;12.80;94.60;;;;;;5106572;27;20483;-67
2021/09/28 01:15:59;;;;;;;4.88;1.65;;;12.80;94.30;;;;;;5109294;27;20048;-67
2021/09/28 01:18:30;;;;;;;7.10;1.73;;;12.90;94.30;;;;;;5107140;27;20039;-67
2021/09/28 01:20:57;;;;;;;6.63;1.75;;;12.90;94.00;;;;;;5096258;28;20050;-67
2021/09/28 01:23:23;;;;;;;7.30;1.70;;;12.70;93.80;;;;;;5097269;27;20059;-67
2021/09/28 01:25:49;;;;;;;6.00;2.08;;;12.60;93.80;;;;;;5097108;28;20415;-68
2021/09/28 01:28:15;;;;;;;7.57;1.58;;;12.50;93.90;;;;;;5099898;27;20031;-67
2021/09/28 01:30:40;;;;;;;10.23;2.17;;;12.40;94.00;;;;;;5082453;27;20035;-67
2021/09/28 01:33:06;;;;;;;5.78;2.03;;;12.30;94.10;;;;;;5110937;27;20078;-67
2021/09/28 01:35:32;;;;;;;6.45;1.90;;;12.20;94.20;;;;;;5105302;27;21096;-68
2021/09/28 01:37:58;;;;;;;6.63;2.20;;;12.10;94.30;;;;;;5104792;27;20491;-68
2021/09/28 01:40:24;;;;;;;6.45;1.75;;;12.00;94.40;;;;;;5097509;28;20355;-68
2021/09/28 01:42:50;;;;;;;6.90;1.85;;;12.00;94.50;;;;;;5108869;28;20039;-68
2021/09/28 01:45:16;;;;;;;7.63;1.98;;;12.00;94.60;;;;;;5108874;27;20507;-68
2021/09/28 01:47:42;;;;;;;4.70;1.80;;;11.90;94.60;;;;;;5090539;27;20402;-68
2021/09/28 01:50:08;;;;;;;4.85;2.00;;;11.90;94.60;;;;;;5106623;28;20035;-68
2021/09/28 01:52:35;;;;;;;6.35;1.90;;;11.90;94.70;;;;;;5111520;27;20048;-68
2021/09/28 01:55:01;;;;;;;5.15;2.08;;;11.80;94.80;;;;;;5094502;28;20126;-67
2021/09/28 01:57:27;;;;;;;8.77;2.30;;;11.80;94.80;;;;;;5106460;28;20122;-70
2021/09/28 01:59:52;;;;;;;4.03;1.85;;;11.80;94.80;;;;;;5103834;28;20052;-70
2021/09/28 02:02:18;;;;;;;5.10;2.10;;;11.70;94.90;;;;;;5106780;28;20543;-70
2021/09/28 02:04:44;;;;;;;6.45;2.65;;;11.60;94.90;;;;;;5109075;28;20042;-70
2021/09/28 02:07:09;;;;;;;7.55;2.53;;;11.70;95.00;;;;;;5091069;28;20098;-70
2021/09/28 02:09:35;;;;;;;7.88;2.45;;;11.60;95.00;;;;;;5110271;27;20079;-70
2021/09/28 02:12:01;;;;;;;6.80;2.47;;;11.70;95.20;;;;;;5121460;27;20535;-70
2021/09/28 02:14:28;;;;;;;8.40;3.88;;;11.70;95.10;;;;;;5103237;28;20548;-69
2021/09/28 02:16:55;;;;;;;7.72;3.35;;;11.70;95.40;;;;;;5110180;27;20042;-70
2021/09/28 02:19:21;;;;;;;7.80;4.35;;;12.00;96.10;;;;;;5108358;27;20039;-70
2021/09/28 02:21:47;;;;;;;7.45;4.15;;;12.10;96.00;;;;;;5112516;27;20039;-70
2021/09/28 02:24:13;;;;;;;5.38;2.08;;;12.30;96.50;;;;;;5110941;27;20039;-69
2021/09/28 02:26:39;;;;;;;9.68;2.17;;;12.60;96.50;;;;;;5110586;27;20039;-70
2021/09/28 02:29:05;;;;;;;5.45;2.35;;;12.50;95.40;;;;;;5110873;27;20042;-70
2021/09/28 02:31:31;;;;;;;5.35;2.28;;;12.40;94.90;;;;;;5111131;27;20080;-70
2021/09/28 02:33:57;;;;;;;5.70;2.30;;;12.20;94.80;;;;;;5107504;27;20048;-70
2021/09/28 02:36:23;;;;;;;8.27;3.40;;;12.10;95.10;;;;;;5107023;27;20031;-70
2021/09/28 02:38:49;;;;;;;7.38;2.50;;;12.10;95.30;;;;;;5084196;27;20039;-70
2021/09/28 02:41:14;;;;;;;6.88;3.88;;;12.10;95.30;;;;;;5108469;27;20968;-70
2021/09/28 02:43:40;;;;;;;8.77;3.70;;;12.20;95.50;;;;;;5107743;27;20049;-69
2021/09/28 02:46:07;;;;;;;6.43;3.03;;;12.30;95.90;;;;;;5109788;27;20056;-70
2021/09/28 02:48:33;;;;;;;13.55;3.25;;;12.40;95.60;;;;;;5112920;27;21747;-70
2021/09/28 02:51:00;;;;;;;4.03;2.55;;;12.40;95.10;;;;;;5105865;27;20092;-70
2021/09/28 02:53:25;;;;;;;8.38;2.65;;;12.40;95.00;;;;;;5106552;27;20043;-70
2021/09/28 02:55:51;;;;;;;9.65;5.20;;;12.40;95.10;;;;;;5105743;27;20052;-70
2021/09/28 02:58:17;;;;;;;6.85;2.90;;;12.60;95.30;;;;;;5111182;27;20124;-71
2021/09/28 03:00:42;;;;;;;9.02;2.63;;;12.80;95.80;;;;;;5109844;27;20040;-70
2021/09/28 03:03:08;;;;;;;6.32;2.22;;;12.80;95.10;;;;;;5105153;27;20040;-71
2021/09/28 03:05:34;;;;;;;11.43;3.25;;;12.70;95.00;;;;;;5109785;27;20414;-71
2021/09/28 03:08:00;;;;;;;8.85;3.05;;;12.60;94.60;;;;;;5102239;27;20031;-71
2021/09/28 03:10:26;;;;;;;6.43;4.15;;;12.60;94.70;;;;;;5105314;27;20081;-70
2021/09/28 03:12:51;;;;;;;9.45;3.10;;;12.80;95.10;;;;;;5106751;27;20073;-70
2021/09/28 03:15:17;;;;;;;4.82;2.80;;;12.90;95.50;;;;;;5109297;27;20050;-70
2021/09/28 03:17:43;;;;;;;6.05;2.65;;;13.10;95.00;;;;;;5111390;27;20043;-70
2021/09/28 03:20:10;;;;;;;7.45;4.28;;;13.20;94.80;;;;;;5100635;27;20038;-70
2021/09/28 03:22:36;;;;;;;9.18;2.70;;;13.50;95.20;;;;;;5106158;27;20039;-70
2021/09/28 03:25:02;;;;;;;7.20;3.58;;;13.60;95.00;;;;;;5109418;27;20043;-70
2021/09/28 03:27:28;;;;;;;8.27;3.63;;;13.70;94.60;;;;;;5111725;27;20043;-70
2021/09/28 03:29:53;;;;;;;5.65;3.03;;;13.90;94.40;;;;;;5104589;27;20043;-70
2021/09/28 03:32:19;;;;;;;10.25;3.15;;;13.70;93.60;;;;;;5080855;27;20047;-69
2021/09/28 03:34:45;;;;;;;9.18;2.83;;;13.60;93.50;;;;;;5108700;27;20039;-69
2021/09/28 03:37:10;;;;;;;6.65;3.85;;;13.40;93.30;;;;;;5109752;27;20062;-69
2021/09/28 03:39:36;;;;;;;7.03;3.05;;;13.40;94.10;;;;;;5107428;27;20365;-69
2021/09/28 03:42:02;;;;;;;11.25;3.47;;;13.50;94.60;;;;;;5095689;27;20055;-69
2021/09/28 03:44:28;;;;;;;7.43;3.35;;;13.60;94.40;;;;;;5085239;27;20047;-69
2021/09/28 03:46:53;;;;;;;6.82;2.90;;;13.60;93.70;;;;;;5106637;27;20058;-69
2021/09/28 03:49:19;;;;;;;9.23;3.85;;;13.60;93.40;;;;;;5092907;27;20402;-69
2021/09/28 03:51:45;;;;;;;6.63;3.17;;;13.60;93.30;;;;;;5093742;27;20096;-69
2021/09/28 03:54:11;;;;;;;10.60;4.15;;;13.50;93.20;;;;;;5093691;27;20074;-69
2021/09/28 03:56:36;;;;;;;5.38;3.33;;;13.40;93.40;;;;;;5108773;27;20046;-69
2021/09/28 03:59:02;;;;;;;7.40;3.30;;;13.50;94.20;;;;;;5098216;27;20043;-70
2021/09/28 04:01:28;;;;;;;6.60;3.08;;;13.70;94.20;;;;;;5099665;27;20416;-69
2021/09/28 04:03:53;;;;;;;7.80;3.67;;;13.90;93.50;;;;;;5095566;27;20077;-70
2021/09/28 04:06:19;;;;;;;9.65;3.25;;;13.80;92.60;;;;;;5098663;27;20074;-64
2021/09/28 04:08:44;;;;;;;7.50;3.33;;;13.40;92.40;;;;;;5107049;27;20147;-64
2021/09/28 04:11:11;;;;;;;10.30;3.65;;;13.10;92.70;;;;;;5092103;27;20055;-63
2021/09/28 04:13:39;;;;;;;9.10;3.58;;;12.90;93.00;;;;;;5106945;27;20035;-64
2021/09/28 04:16:07;;;;;;;10.18;3.92;;;12.60;93.30;;;;;;5108003;27;20143;-64
2021/09/28 04:18:33;;;;;;;9.40;4.18;;;12.40;93.50;;;;;;5085734;27;20042;-64
2021/09/28 04:20:59;;;;;;;12.80;4.55;;;12.20;93.80;;;;;;5111335;27;20119;-63
2021/09/28 04:23:25;;;;;;;12.77;4.30;;;12.10;94.00;;;;;;5109569;27;20504;-64
2021/09/28 04:25:50;;;;;;;7.40;4.20;;;12.10;94.10;;;;;;5107540;27;20041;-64
2021/09/28 04:28:16;;;;;;;8.98;4.05;;;12.00;94.30;;;;;;5098096;27;20119;-64
2021/09/28 04:30:42;;;;;;;8.73;4.43;;;11.90;94.60;;;;;;5109181;27;20096;-64
2021/09/28 04:33:08;;;;;;;12.52;3.80;;;11.90;94.50;;;;;;5108795;27;20140;-70
2021/09/28 04:35:34;;;;;;;9.82;4.10;;;11.80;94.50;;;;;;5111258;27;20118;-69
2021/09/28 04:37:59;;;;;;;7.28;4.60;;;11.70;94.60;;;;;;5108155;27;20487;-70
2021/09/28 04:40:26;;;;;;;7.70;4.43;;;11.70;94.60;;;;;;5091929;27;20053;-69
2021/09/28 04:42:51;;;;;;;9.07;4.55;;;11.70;94.70;;;;;;5110211;27;20067;-69
2021/09/28 04:45:17;;;;;;;6.63;4.55;;;11.70;94.80;;;;;;5108256;27;20091;-70
2021/09/28 04:47:43;;;;;;;11.98;5.30;;;11.60;94.90;;;;;;5103117;27;20088;-70
2021/09/28 04:50:09;;;;;;;7.20;4.68;;;11.60;94.90;;;;;;5081173;27;20096;-69
2021/09/28 04:52:36;;;;;;;8.05;4.80;;;11.60;94.90;;;;;;5104045;27;20118;-70
2021/09/28 04:55:03;;;;;;;10.32;5.00;;;11.50;94.90;;;;;;5097863;27;20122;-69
2021/09/28 04:57:30;;;;;;;9.57;5.10;;;11.50;94.90;;;;;;5081042;27;20139;-70
2021/09/28 04:59:55;;;;;;;9.10;5.22;;;11.30;94.90;;;;;;5105902;27;20143;-70
2021/09/28 05:02:21;;;;;;;11.88;5.65;;;11.30;95.10;;;;;;5081909;27;20076;-70
2021/09/28 05:04:47;;;;;;;12.48;5.55;;;11.10;95.20;;;;;;5091161;28;20110;-70
2021/09/28 05:07:12;;;;;;;10.43;6.00;;;11.00;95.30;;;;;;5087715;27;20044;-69
2021/09/28 05:09:39;;;;;;;11.07;5.80;;;11.00;95.50;;;;;;5080699;27;20487;-69
2021/09/28 05:12:06;;;;;;;16.45;6.90;;;10.90;95.70;;;;;;5111986;27;20040;-69
2021/09/28 05:14:32;;;;;;;9.25;5.45;;;10.90;95.80;;;;;;5103503;27;20043;-69
2021/09/28 05:16:58;;;;;;;15.57;5.78;;;10.90;95.90;;;;;;5091508;28;20039;-67
2021/09/28 05:19:24;;;;;;;7.45;5.55;;;10.90;96.00;;;;;;5097466;27;20039;-67
2021/09/28 05:21:49;;;;;;;11.70;6.38;;;10.90;96.10;;;;;;5103383;27;20047;-68
2021/09/28 05:24:15;;;;;;;12.23;6.55;;;11.00;96.30;;;;;;5091794;27;20047;-66
2021/09/28 05:26:41;;;;;;;12.55;6.03;;;11.00;96.10;;;;;;5098660;27;20540;-67
2021/09/28 05:29:06;;;;;;;10.93;5.55;;;11.00;96.00;;;;;;5104476;27;20027;-66
2021/09/28 05:31:32;;;;;;;17.65;6.47;;;11.00;96.00;;;;;;5108363;27;20135;-68
2021/09/28 05:33:58;;;;;;;10.43;6.03;;;11.00;96.10;;;;;;5110335;27;20031;-67
2021/09/28 05:36:24;;;;;;;10.75;6.05;;;11.00;96.10;;;;;;5103720;27;20118;-66
2021/09/28 05:38:49;;;;;;;13.80;6.47;;;11.00;96.10;;;;;;5102040;27;20050;-67
2021/09/28 05:41:15;;;;;;;11.13;6.50;;;11.00;96.10;;;;;;5104469;27;20521;-66
2021/09/28 05:43:41;;;;;;;10.13;6.05;;;11.00;96.10;;;;;;5108000;27;20054;-67
2021/09/28 05:46:07;;;;;;;12.32;5.80;;;11.00;96.10;;;;;;5106860;27;20752;-67
2021/09/28 05:48:33;;;;;;;12.27;6.28;;;11.00;96.10;;;;;;5093619;28;20043;-67
2021/09/28 05:50:59;;;;;;;12.68;6.80;;;10.90;96.10;;;;;;5107785;27;20034;-67
2021/09/28 05:53:27;;;;;;;11.60;6.25;;;10.80;96.20;;;;;;5105038;27;20521;-67
2021/09/28 05:55:54;;;;;;;19.00;6.82;;;10.80;96.30;;;;;;5100670;27;20066;-66
2021/09/28 05:58:20;;;;;;;11.68;6.97;;;10.80;96.30;;;;;;5062817;28;20051;-68
2021/09/28 06:00:46;;;;;;;12.10;6.45;;;10.80;96.30;;;;;;5107144;28;20044;-66
2021/09/28 06:03:11;;;;;;;19.67;6.53;;;10.90;96.40;;;;;;5101328;28;20047;-67
2021/09/28 06:05:37;;;;;;;12.00;6.55;;;10.90;96.40;;;;;;5098060;28;20035;-67
2021/09/28 06:08:03;;;;;;;14.63;6.95;;;10.90;96.40;;;;;;5104554;28;20800;-67
2021/09/28 06:10:29;;;;;;;11.40;6.65;;;10.90;96.40;;;;;;5104340;28;20069;-67
2021/09/28 06:12:54;;;;;;;13.70;6.28;;;11.00;96.50;;;;;;5107333;28;20415;-67
2021/09/28 06:15:20;;;;;;;12.13;6.70;;;11.10;96.60;;;;;;5109998;28;20055;-67
2021/09/28 06:17:46;;;;;;;12.18;6.10;;;11.20;96.60;;;;;;5100839;28;20353;-67
2021/09/28 06:20:12;;;;;;;12.55;6.35;;;11.30;96.60;;;;;;5106986;28;20122;-68
2021/09/28 06:22:38;;;;;;;15.88;6.43;;;11.40;96.60;;;;;;5102041;28;20040;-67
2021/09/28 06:25:05;;;;;;;12.20;6.40;;;11.40;96.50;;;;;;5103898;28;20137;-62
2021/09/28 06:27:30;;;;;;;10.77;5.97;;;11.40;96.30;;;;;;5106980;28;20118;-62
2021/09/28 06:29:56;;;;;;;11.75;6.13;;;11.50;96.30;;;;;;5104324;28;20062;-62
2021/09/28 06:32:23;;;;;;;12.48;5.78;;;11.50;96.30;;;;;;5103738;28;20085;-67
2021/09/28 06:34:49;;;;;;;12.07;6.57;;;11.60;96.30;;;;;;5098853;28;20052;-67
2021/09/28 06:37:15;;;;;;;16.23;6.30;;;11.70;96.20;;;;;;5091242;28;20064;-67
2021/09/28 06:39:41;;;;;;;14.18;7.00;;;11.70;96.20;;;;;;5100520;28;20067;-67
2021/09/28 06:42:07;;;;;;;16.80;6.28;;;11.80;96.10;;;;;;5105355;28;20391;-67
2021/09/28 06:44:33;;;;;;;14.65;6.65;;;11.90;96.10;;;;;;5106923;28;20376;-67
2021/09/28 06:46:59;;;;;;;12.35;5.80;;;12.10;96.00;;;;;;5106004;27;20101;-67
2021/09/28 06:49:24;;;;;;;13.40;5.90;;;12.20;95.90;;;;;;5101469;28;20040;-76
2021/09/28 06:51:51;;;;;;;11.55;5.70;;;12.40;96.00;;;;;;5091788;28;20400;-75
2021/09/28 06:54:17;;;;;;;13.15;5.93;;;12.70;96.10;;;;;;5107142;28;20095;-77
2021/09/28 06:56:42;;;;;;;10.88;5.35;;;13.10;95.60;;;;;;5097381;28;20158;-76
2021/09/28 06:59:10;;;;;;;14.90;5.15;;;13.50;95.30;;;;;;5093001;28;20054;-67
2021/09/28 07:01:40;;;;;;;13.23;5.25;;;13.70;94.80;;;;;;5105694;28;20132;-68
2021/09/28 07:04:07;;;;;;;14.18;5.47;;;13.70;94.60;;;;;;5104549;27;20040;-68
2021/09/28 07:06:33;;;;;;;15.77;6.07;;;13.80;94.40;;;;;;5105051;27;20043;-69
2021/09/28 07:09:03;;;;;;;14.05;5.82;;;13.90;94.40;;;;;;5094965;27;20035;-69
2021/09/28 07:11:29;;;;;;;9.77;4.72;;;14.10;94.10;;;;;;5105902;27;20035;-69
2021/09/28 07:13:58;;;;;;;12.50;5.20;;;14.20;93.90;;;;;;5091079;27;20050;-70
2021/09/28 07:16:24;;;;;;;9.48;4.40;;;14.40;93.90;;;;;;5091922;27;20093;-67
2021/09/28 07:18:50;;;;;;;11.55;5.15;;;14.60;93.60;;;;;;5110974;27;20039;-69
2021/09/28 07:21:16;;;;;;;14.07;4.63;;;14.90;93.00;;;;;;5105208;27;20427;-67
2021/09/28 07:23:42;;;;;;;11.13;5.47;;;15.00;92.60;;;;;;5109324;27;20387;-75
2021/09/28 07:26:08;;;;;;;11.32;4.28;;;15.10;92.30;;;;;;5085159;28;20092;-75
2021/09/28 07:28:35;;;;;;;16.75;5.35;;;15.30;92.20;;;;;;5085454;27;20028;-75
2021/09/28 07:31:01;;;;;;;8.30;4.53;;;15.60;91.70;;;;;;5083325;27;20028;-69
2021/09/28 07:33:26;;;;;;;13.32;5.13;;;15.80;91.20;;;;;;5101638;27;20031;-65
2021/09/28 07:35:52;;;;;;;10.57;5.45;;;15.90;91.10;;;;;;5105996;27;20054;-66
2021/09/28 07:38:18;;;;;;;14.65;4.65;;;16.10;90.80;;;;;;5080828;27;20043;-71
2021/09/28 07:40:46;;;;;;;18.15;6.72;;;16.00;90.60;;;;;;5108775;27;20377;-69
2021/09/28 07:43:13;;;;;;;14.95;5.30;;;16.00;90.60;;;;;;5081894;27;20035;-69
2021/09/28 07:45:38;;;;;;;13.23;5.25;;;15.90;90.60;;;;;;5107328;27;20047;-69
2021/09/28 07:48:05;;;;;;;10.88;4.75;;;16.00;90.40;;;;;;5094893;28;20475;-65
2021/09/28 07:50:31;;;;;;;13.90;4.60;;;16.10;90.20;;;;;;5103885;27;20032;-68
2021/09/28 07:52:58;;;;;;;11.68;3.65;;;16.20;90.20;;;;;;5108879;27;20051;-69
2021/09/28 07:55:24;;;;;;;9.93;4.20;;;16.20;90.50;;;;;;5107178;27;20047;-68
2021/09/28 07:57:50;;;;;;;9.82;4.30;;;16.40;90.30;;;;;;5104489;27;20073;-69
2021/09/28 08:00:16;;;;;;;12.38;4.90;;;16.60;90.10;;;;;;5095485;27;20048;-70
2021/09/28 08:02:42;;;;;;;14.07;4.13;;;16.70;89.10;;;;;;5082801;27;20180;-70
2021/09/28 08:05:09;;;;;;;10.15;4.00;;;16.80;89.20;;;;;;5108228;27;20043;-71
2021/09/28 08:07:36;;;;;;;14.43;4.85;;;17.00;89.30;;;;;;5111111;27;20036;-70
2021/09/28 08:10:03;;;;;;;21.83;7.57;;;17.40;88.70;;;;;;5110030;27;20059;-72
2021/09/28 08:12:28;;;;;;;25.02;8.05;;;17.70;87.10;;;;;;5110634;27;20111;-72
2021/09/28 08:14:54;;;;;;;9.88;4.90;;;17.80;87.20;;;;;;5113208;27;20611;-70
2021/09/28 08:17:21;;;;;;;9.15;4.45;;;18.10;86.20;;;;;;5078936;27;20035;-70
2021/09/28 08:19:49;;;;;;;14.95;4.97;;;18.00;84.80;;;;;;5108886;27;20074;-71
2021/09/28 08:22:16;;;;;;;10.18;4.72;;;17.70;84.50;;;;;;5109152;27;20044;-70
2021/09/28 08:24:42;;;;;;;11.80;4.35;;;17.60;85.30;;;;;;5082232;27;20036;-71
2021/09/28 08:29:55;;;;;;;10.27;4.25;;;17.50;86.50;;;;;;5096412;27;20050;-71
2021/09/28 08:32:21;;;;;;;15.60;4.93;;;17.70;86.30;;;;;;5079972;28;20164;-71
2021/09/28 08:34:46;;;;;;;10.00;3.95;;;17.70;85.60;;;;;;5105536;27;20484;-74
2021/09/28 08:37:13;;;;;;;13.27;4.22;;;17.70;85.70;;;;;;5108254;27;20047;-72
2021/09/28 08:39:39;;;;;;;12.63;4.82;;;17.90;85.90;;;;;;5105121;27;20096;-77
2021/09/28 08:42:05;;;;;;;10.50;3.72;;;18.30;85.40;;;;;;5079363;28;20044;-77
2021/09/28 08:44:31;;;;;;;16.23;3.72;;;18.60;84.60;;;;;;5080251;28;20042;-77
2021/09/28 08:46:57;;;;;;;10.40;3.28;;;18.90;83.60;;;;;;5085527;27;20047;-77
2021/09/28 08:49:23;;;;;;;11.93;3.65;;;19.30;82.70;;;;;;5101833;27;20066;-77
2021/09/28 08:51:50;;;;;;;9.20;3.50;;;19.50;81.70;;;;;;5106741;27;20085;-78
2021/09/28 08:54:17;;;;;;;12.05;3.85;;;19.70;80.80;;;;;;5094399;27;20039;-78
2021/09/28 08:56:44;;;;;;;7.00;3.25;;;19.80;80.30;;;;;;5108146;27;20032;-78
2021/09/28 08:59:13;;;;;;;12.50;3.83;;;19.80;79.70;;;;;;5086858;27;20039;-78
2021/09/28 09:02:01;;;;;;;11.38;4.85;;;19.60;79.30;;;;;;5114152;27;20035;-78
2021/09/28 09:04:27;;;;;;;15.13;4.20;;;19.50;80.00;;;;;;5111815;27;20049;-75
2021/09/28 09:06:54;;;;;;;15.13;4.63;;;19.20;80.20;;;;;;5091359;28;20487;-74
2021/09/28 09:09:21;;;;;;;11.85;3.28;;;19.20;80.40;;;;;;5089782;28;20152;-75
2021/09/28 09:11:48;;;;;;;14.10;5.05;;;19.30;81.00;;;;;;5105802;27;20040;-75
2021/09/28 09:14:25;;;;;;;15.20;4.70;;;19.50;80.00;;;;;;5094834;27;20038;-76
2021/09/28 09:16:53;;;;;;;10.82;4.05;;;19.40;79.70;;;;;;5084034;27;20050;-76
2021/09/28 09:19:29;;;;;;;13.05;4.05;;;19.40;79.50;;;;;;5109486;27;20043;-76
2021/09/28 09:22:00;;;;;;;10.85;3.42;;;19.40;80.30;;;;;;5084408;27;20081;-76
2021/09/28 09:24:45;;;;;;;6.47;2.55;;;19.70;80.20;;;;;;5083968;28;20045;-76
2021/09/28 09:27:14;;;;;;;14.77;4.38;;;19.80;80.30;;;;;;5091004;27;20039;-76
2021/09/28 09:29:40;;;;;;;12.35;4.07;;;20.00;78.60;;;;;;5101582;27;20039;-75
2021/09/28 09:32:06;;;;;;;12.35;2.97;;;19.80;77.60;;;;;;5086978;27;20035;-76
2021/09/28 09:34:32;;;;;;;14.70;3.90;;;19.80;78.40;;;;;;5082465;27;20078;-76
2021/09/28 09:37:02;;;;;;;10.32;2.58;;;19.90;78.80;;;;;;5106607;27;20096;-76
2021/09/28 09:39:44;;;;;;;14.75;4.07;;;20.10;78.70;;;;;;5104214;27;20044;-70
2021/09/28 09:42:10;;;;;;;9.68;3.08;;;20.10;77.60;;;;;;5105336;27;20118;-70
2021/09/28 09:44:36;;;;;;;19.45;12.07;;;20.00;77.90;;;;;;5104163;27;20058;-72
2021/09/28 09:47:02;;;;;;;16.48;4.10;;;20.10;78.40;;;;;;5106877;27;20059;-70
2021/09/28 09:49:33;;;;;;;14.48;3.75;;;20.00;77.70;;;;;;5091522;27;20074;-70
2021/09/28 09:52:08;;;;;;;13.48;3.83;;;19.90;77.30;;;;;;5104399;27;20050;-70
2021/09/28 09:54:41;;;;;;;10.68;3.45;;;19.90;78.00;;;;;;5080017;27;20324;-70
2021/09/28 09:57:13;;;;;;;12.52;2.40;;;19.70;77.60;;;;;;5107231;27;20415;-70
2021/09/28 09:59:40;;;;;;;11.43;2.80;;;19.80;77.30;;;;;;5081944;28;20099;-73
2021/09/28 10:02:07;;;;;;;9.32;2.72;;;19.90;77.90;;;;;;5103881;28;20043;-70
2021/09/28 10:04:33;;;;;;;12.07;3.03;;;20.10;77.80;;;;;;5097000;28;20039;-70
2021/09/28 10:07:02;;;;;;;8.43;2.28;;;20.40;77.50;;;;;;5104409;27;20101;-70
2021/09/28 10:09:34;;;;;;;7.93;2.35;;;20.60;76.70;;;;;;5090406;28;20092;-70
2021/09/28 10:12:06;;;;;;;9.55;2.63;;;20.80;76.50;;;;;;5106731;28;20047;-68
2021/09/28 10:14:42;;;;;;;16.58;2.92;;;21.00;75.40;;;;;;5097038;28;20159;-68
2021/09/28 10:17:34;;;;;;;10.10;3.00;;;20.80;74.90;;;;;;5104523;28;20162;-70
2021/09/28 10:20:03;;;;;;;13.40;3.92;;;20.90;76.30;;;;;;5104618;27;20048;-69
2021/09/28 10:22:52;;;;;;;9.82;2.80;;;20.50;75.90;;;;;;5103897;28;20097;-69
2021/09/28 10:25:21;;;;;;;13.43;3.83;;;20.60;76.30;;;;;;5101642;28;20048;-69
2021/09/28 10:28:17;;;;;;;10.00;3.03;;;20.50;75.80;;;;;;5105962;28;20077;-69
2021/09/28 10:30:45;;;;;;;14.43;3.42;;;20.30;76.00;;;;;;5102338;28;20047;-69
2021/09/28 10:33:10;;;;;;;10.30;2.38;;;20.00;75.60;;;;;;5109331;27;20062;-69
2021/09/28 10:35:51;;;;;;;8.98;2.47;;;19.90;75.70;;;;;;5097636;28;20402;-69
2021/09/28 10:38:17;;;;;;;7.78;2.10;;;19.80;76.70;;;;;;5103792;27;20138;-70
2021/09/28 10:40:48;;;;;;;12.25;2.30;;;19.80;76.70;;;;;;5067659;27;22315;-69
2021/09/28 10:43:29;;;;;;;12.63;3.25;;;20.00;77.20;;;;;;5107445;27;20047;-69
2021/09/28 10:45:56;;;;;;;5.85;2.03;;;20.10;76.70;;;;;;5107526;27;20104;-68
2021/09/28 10:48:28;;;;;;;8.23;2.00;;;20.20;77.10;;;;;;5093256;27;20048;-68
2021/09/28 10:51:03;;;;;;;10.18;2.63;;;20.30;76.60;;;;;;5111972;27;20092;-71
2021/09/28 10:53:29;;;;;;;11.35;2.30;;;20.40;75.60;;;;;;5083362;27;20027;-72
2021/09/28 10:55:57;;;;;;;7.28;1.92;;;20.50;74.60;;;;;;5081906;27;20044;-72
2021/09/28 10:58:24;;;;;;;7.95;2.58;;;20.40;74.00;;;;;;5107677;27;20049;-72
2021/09/28 11:00:53;;;;;;;7.72;1.92;;;20.40;74.10;;;;;;5097104;28;20067;-72
2021/09/28 11:03:57;;;;;;;12.02;2.67;;;20.60;74.00;;;;;;5108190;27;20051;-71
2021/09/28 11:06:41;;;;;;;9.40;2.08;;;20.60;73.90;;;;;;5052434;28;20052;-71
2021/09/28 11:09:07;;;;;;;10.13;1.60;;;20.60;73.10;;;;;;5104283;27;20050;-71
2021/09/28 11:11:34;;;;;;;9.02;1.67;;;20.50;73.10;;;;;;5093517;27;20764;-71
2021/09/28 11:14:02;;;;;;;7.40;1.40;;;20.50;72.90;;;;;;5083542;27;20043;-71
2021/09/28 11:16:28;;;;;;;7.90;1.25;;;20.60;72.90;;;;;;5104718;27;20047;-71
2021/09/28 11:18:59;;;;;;;9.15;1.77;;;20.60;72.70;;;;;;5068822;27;20807;-72
2021/09/28 11:21:25;;;;;;;10.30;2.15;;;20.50;72.30;;;;;;5083983;27;20050;-73
2021/09/28 11:23:54;;;;;;;6.90;1.58;;;20.60;72.00;;;;;;5108087;27;20054;-72
2021/09/28 11:26:33;;;;;;;9.85;1.85;;;20.80;71.00;;;;;;5099517;27;20088;-72
2021/09/28 11:29:01;;;;;;;6.55;1.77;;;20.90;71.30;;;;;;5106701;27;20036;-72
2021/09/28 11:31:33;;;;;;;9.35;1.60;;;21.00;71.30;;;;;;5080799;28;20126;-72
2021/09/28 11:34:00;;;;;;;8.48;1.67;;;21.00;71.20;;;;;;5099589;27;20047;-63
2021/09/28 11:36:31;;;;;;;9.43;2.13;;;21.10;70.30;;;;;;5106496;27;20074;-62
2021/09/28 11:38:56;;;;;;;10.52;2.03;;;21.10;70.70;;;;;;5108778;27;20056;-62
2021/09/28 11:41:23;;;;;;;8.68;1.70;;;21.10;69.00;;;;;;5112130;27;20039;-62
2021/09/28 11:43:54;;;;;;;11.45;1.63;;;21.10;69.50;;;;;;5107701;27;20101;-62
2021/09/28 11:46:22;;;;;;;11.15;2.10;;;21.20;69.00;;;;;;5108919;27;20051;-63
2021/09/28 11:49:00;;;;;;;10.35;2.33;;;21.10;69.00;;;;;;5098391;27;20048;-63
2021/09/28 11:51:29;;;;;;;11.35;1.40;;;21.20;70.10;;;;;;5106553;27;20042;-63
2021/09/28 11:54:01;;;;;;;11.13;1.90;;;21.20;70.10;;;;;;5105218;27;20038;-63
2021/09/28 11:56:30;;;;;;;11.43;1.88;;;21.30;69.80;;;;;;5110950;27;20051;-63
2021/09/28 11:58:56;;;;;;;7.43;1.30;;;21.40;70.80;;;;;;5109432;27;20588;-63
2021/09/28 12:01:23;;;;;;;6.57;1.30;;;21.40;69.40;;;;;;5105952;27;20063;-63
2021/09/28 12:04:09;;;;;;;11.10;1.80;;;21.50;68.90;;;;;;5104189;27;20050;-63
2021/09/28 12:06:48;;;;;;;17.58;2.35;;;21.40;68.40;;;;;;5104520;27;20054;-63
2021/09/28 12:09:14;;;;;;;15.35;2.10;;;21.20;69.00;;;;;;5108205;27;20051;-63
2021/09/28 12:12:03;;;;;;;406.77;364.20;;;21.20;69.80;;;;;;5107859;27;20036;-63
2021/09/28 12:14:41;;;;;;;66.03;51.70;;;21.30;70.00;;;;;;5110663;27;20019;-63
2021/09/28 12:17:18;;;;;;;14.10;8.23;;;21.30;68.70;;;;;;5099270;27;20177;-63
2021/09/28 12:19:48;;;;;;;8.32;2.00;;;21.40;68.50;;;;;;5106120;27;20047;-63
2021/09/28 12:22:29;;;;;;;9.05;1.52;;;21.40;68.00;;;;;;5081431;27;20045;-63
2021/09/28 12:24:55;;;;;;;7.25;1.58;;;21.50;67.70;;;;;;5076727;27;20044;-63
2021/09/28 12:27:23;;;;;;;11.15;1.67;;;21.50;67.40;;;;;;5095496;27;20096;-63
2021/09/28 12:29:50;;;;;;;9.95;1.55;;;21.40;66.70;;;;;;5093863;28;20134;-63
2021/09/28 12:32:25;;;;;;;7.13;1.08;;;21.30;65.40;;;;;;5096888;27;20088;-63
2021/09/28 12:35:06;;;;;;;8.55;1.70;;;21.00;63.30;;;;;;5100238;27;22232;-66
2021/09/28 12:37:48;;;;;;;9.55;2.05;;;20.60;64.10;;;;;;5095840;27;20039;-63
2021/09/28 12:40:16;;;;;;;11.00;1.25;;;20.30;66.70;;;;;;5096481;27;20036;-63
2021/09/28 12:42:43;;;;;;;5.53;1.38;;;20.20;66.30;;;;;;5104241;27;22291;-64
2021/09/28 12:45:12;;;;;;;7.50;1.35;;;20.10;67.10;;;;;;5103208;27;20040;-64